createdAt,value
2022-08-07T00:00:00.000Z,14.25
2022-08-07T00:15:00.000Z,12.24
2022-08-07T00:30:00.000Z,11.28
2022-08-07T00:45:00.000Z,12.52
2022-08-07T01:00:00.000Z,13.46
2022-08-07T01:15:00.000Z,12.66
2022-08-07T01:30:00.000Z,12.13
2022-08-07T01:45:00.000Z,12.04
2022-08-07T02:00:00.000Z,13.48
2022-08-07T02:15:00.000Z,12.34
2022-08-07T02:45:00.000Z,11
2022-08-07T02:45:00.000Z,11.67
2022-08-07T03:00:00.000Z,11.84
2022-08-07T03:15:00.000Z,13.39
2022-08-07T03:30:00.000Z,12.07
2022-08-07T03:45:00.000Z,10.62
2022-08-07T04:00:00.000Z,13.53
2022-08-07T04:15:00.000Z,14.4
2022-08-07T04:30:00.000Z,14.72
2022-08-07T04:45:00.000Z,13.96
2022-08-07T05:00:00.000Z,14.12
2022-08-07T05:15:00.000Z,14.28
2022-08-07T05:30:00.000Z,14.08
2022-08-07T05:45:00.000Z,14.51
2022-08-07T06:00:00.000Z,14.59
2022-08-07T06:15:00.000Z,14.41
2022-08-07T06:30:00.000Z,14.18
2022-08-07T06:45:00.000Z,14.62
2022-08-07T07:00:00.000Z,15.79
2022-08-07T07:15:00.000Z,15.21
2022-08-07T07:30:00.000Z,12.2
2022-08-07T07:45:00.000Z,10.18
2022-08-07T08:00:00.000Z,9.35
2022-08-07T08:15:00.000Z,7.74
2022-08-07T08:30:00.000Z,7.71
2022-08-07T08:45:00.000Z,7.71
2022-08-07T09:00:00.000Z,7.82
2022-08-07T09:15:00.000Z,7.87
2022-08-07T09:30:00.000Z,7.33
2022-08-07T10:00:00.000Z,8
2022-08-07T10:00:00.000Z,7.38
2022-08-07T10:15:00.000Z,7.48
2022-08-07T10:30:00.000Z,7.44
2022-08-07T10:45:00.000Z,7.68
2022-08-07T11:00:00.000Z,7.25
2022-08-07T11:15:00.000Z,7.56
2022-08-07T11:30:00.000Z,7.55
2022-08-07T11:45:00.000Z,7.14
2022-08-07T12:00:00.000Z,7.28
2022-08-07T12:15:00.000Z,7.76
2022-08-07T12:30:00.000Z,7.45
2022-08-07T12:45:00.000Z,7.62
2022-08-07T13:00:00.000Z,8.07
2022-08-07T13:15:00.000Z,8.54
2022-08-07T13:30:00.000Z,8.01
2022-08-07T13:45:00.000Z,7.88
2022-08-07T14:00:00.000Z,8.35
2022-08-07T14:15:00.000Z,8.33
2022-08-07T14:30:00.000Z,9.31
2022-08-07T14:45:00.000Z,9.14
2022-08-07T15:00:00.000Z,8.76
2022-08-07T15:30:00.000Z,8.08
2022-08-07T15:45:00.000Z,8.81
2022-08-07T16:00:00.000Z,9.22
2022-08-07T16:15:00.000Z,8.05
2022-08-07T16:30:00.000Z,8.84
2022-08-07T16:45:00.000Z,9.27
2022-08-07T17:00:00.000Z,9.76
2022-08-07T17:15:00.000Z,8.45
2022-08-07T17:30:00.000Z,10.16
2022-08-07T17:45:00.000Z,9.66
2022-08-07T18:00:00.000Z,9.01
2022-08-07T18:15:00.000Z,9.2
2022-08-07T18:30:00.000Z,8.2
2022-08-07T18:45:00.000Z,7.79
2022-08-07T19:00:00.000Z,7.98
2022-08-07T19:15:00.000Z,8.39
2022-08-07T19:30:00.000Z,10.82
2022-08-07T19:45:00.000Z,8.14
2022-08-07T20:00:00.000Z,9.26
2022-08-07T20:15:00.000Z,9.36
2022-08-07T20:30:00.000Z,9.45
2022-08-07T20:45:00.000Z,9.62
2022-08-07T21:00:00.000Z,9.18
2022-08-07T21:15:00.000Z,9.46
2022-08-07T21:30:00.000Z,9.91
2022-08-07T21:45:00.000Z,9.96
2022-08-07T22:00:00.000Z,10.21
2022-08-07T22:15:00.000Z,10
2022-08-07T22:30:00.000Z,9.89
2022-08-07T22:45:00.000Z,9.99
2022-08-07T23:00:00.000Z,9.74
2022-08-07T23:15:00.000Z,7.69
2022-08-07T23:30:00.000Z,7.56
2022-08-07T23:45:00.000Z,7.36
